sensor_id;sensor_type;location;lat;lon;timestamp;temperature;humidity
32147;DHT22;32190;49.112;8.598;2024-03-23T00:55:41;17.00;51.60
32147;DHT22;32190;49.112;8.598;2024-03-23T01:01:31;17.00;51.60
32147;DHT22;32190;49.112;8.598;2024-03-23T01:07:22;16.90;51.50
32147;DHT22;32190;49.112;8.598;2024-03-23T01:13:12;16.90;51.60
32147;DHT22;32190;49.112;8.598;2024-03-23T01:19:03;16.90;51.60
32147;DHT22;32190;49.112;8.598;2024-03-23T01:24:53;16.90;51.60
32147;DHT22;32190;49.112;8.598;2024-03-23T01:30:44;16.90;51.50
32147;DHT22;32190;49.112;8.598;2024-03-23T01:36:35;16.90;51.60
32147;DHT22;32190;49.112;8.598;2024-03-23T01:42:25;16.80;51.60
32147;DHT22;32190;49.112;8.598;2024-03-23T01:48:16;16.80;51.60
32147;DHT22;32190;49.112;8.598;2024-03-23T01:54:06;16.80;51.70
32147;DHT22;32190;49.112;8.598;2024-03-23T01:59:57;16.80;51.70
32147;DHT22;32190;49.112;8.598;2024-03-23T02:05:47;16.80;51.70
32147;DHT22;32190;49.112;8.598;2024-03-23T02:11:40;16.80;51.80
32147;DHT22;32190;49.112;8.598;2024-03-23T02:17:32;16.80;51.80
32147;DHT22;32190;49.112;8.598;2024-03-23T02:23:23;16.90;51.80
32147;DHT22;32190;49.112;8.598;2024-03-23T03:00:22;16.90;51.80
32147;DHT22;32190;49.112;8.598;2024-03-23T03:06:22;16.90;51.90
32147;DHT22;32190;49.112;8.598;2024-03-23T03:12:12;16.90;51.90
32147;DHT22;32190;49.112;8.598;2024-03-23T03:18:03;16.90;51.90
32147;DHT22;32190;49.112;8.598;2024-03-23T03:23:54;16.90;52.00
32147;DHT22;32190;49.112;8.598;2024-03-23T03:29:46;16.90;52.00
32147;DHT22;32190;49.112;8.598;2024-03-23T03:35:36;16.90;52.00
32147;DHT22;32190;49.112;8.598;2024-03-23T03:41:28;16.90;52.10
32147;DHT22;32190;49.112;8.598;2024-03-23T03:47:18;16.90;52.20
32147;DHT22;32190;49.112;8.598;2024-03-23T03:53:08;16.90;52.20
32147;DHT22;32190;49.112;8.598;2024-03-23T03:58:59;16.90;52.30
32147;DHT22;32190;49.112;8.598;2024-03-23T04:04:49;16.90;52.30
32147;DHT22;32190;49.112;8.598;2024-03-23T04:10:40;16.90;52.20
32147;DHT22;32190;49.112;8.598;2024-03-23T04:16:33;16.90;52.30
32147;DHT22;32190;49.112;8.598;2024-03-23T04:22:23;16.90;52.20
32147;DHT22;32190;49.112;8.598;2024-03-23T04:28:17;16.80;52.20
32147;DHT22;32190;49.112;8.598;2024-03-23T04:34:07;16.80;52.20
32147;DHT22;32190;49.112;8.598;2024-03-23T04:39:58;16.80;52.20
32147;DHT22;32190;49.112;8.598;2024-03-23T04:45:49;16.80;52.10
32147;DHT22;32190;49.112;8.598;2024-03-23T04:51:39;16.80;52.20
32147;DHT22;32190;49.112;8.598;2024-03-23T04:57:32;16.70;52.10
32147;DHT22;32190;49.112;8.598;2024-03-23T05:03:22;16.70;52.20
32147;DHT22;32190;49.112;8.598;2024-03-23T05:09:13;16.60;52.10
32147;DHT22;32190;49.112;8.598;2024-03-23T05:15:04;16.60;52.10
32147;DHT22;32190;49.112;8.598;2024-03-23T05:20:55;16.60;52.10
32147;DHT22;32190;49.112;8.598;2024-03-23T05:26:46;16.50;52.00
32147;DHT22;32190;49.112;8.598;2024-03-23T05:32:37;16.40;51.80
32147;DHT22;32190;49.112;8.598;2024-03-23T05:38:30;16.30;51.90
32147;DHT22;32190;49.112;8.598;2024-03-23T05:44:21;16.20;51.90
32147;DHT22;32190;49.112;8.598;2024-03-23T05:50:11;16.20;51.80
32147;DHT22;32190;49.112;8.598;2024-03-23T05:56:03;16.20;51.90
32147;DHT22;32190;49.112;8.598;2024-03-23T06:33:39;15.60;51.60
32147;DHT22;32190;49.112;8.598;2024-03-23T06:39:32;15.60;51.60
32147;DHT22;32190;49.112;8.598;2024-03-23T06:45:23;15.60;51.70
32147;DHT22;32190;49.112;8.598;2024-03-23T06:51:13;15.50;51.50
32147;DHT22;32190;49.112;8.598;2024-03-23T06:57:04;15.50;52.10
32147;DHT22;32190;49.112;8.598;2024-03-23T07:02:54;15.40;51.40
32147;DHT22;32190;49.112;8.598;2024-03-23T07:08:45;15.40;51.40
32147;DHT22;32190;49.112;8.598;2024-03-23T07:14:35;15.40;50.60
32147;DHT22;32190;49.112;8.598;2024-03-23T07:20:26;15.30;49.90
32147;DHT22;32190;49.112;8.598;2024-03-23T07:26:17;15.20;50.50
32147;DHT22;32190;49.112;8.598;2024-03-23T07:32:09;15.00;50.80
32147;DHT22;32190;49.112;8.598;2024-03-23T07:38:01;14.90;51.40
32147;DHT22;32190;49.112;8.598;2024-03-23T07:43:55;14.70;51.00
32147;DHT22;32190;49.112;8.598;2024-03-23T07:49:46;14.60;51.10
32147;DHT22;32190;49.112;8.598;2024-03-23T07:55:36;14.50;51.40
32147;DHT22;32190;49.112;8.598;2024-03-23T08:01:27;14.50;51.70
32147;DHT22;32190;49.112;8.598;2024-03-23T08:38:51;14.80;51.40
32147;DHT22;32190;49.112;8.598;2024-03-23T08:44:44;14.90;51.40
32147;DHT22;32190;49.112;8.598;2024-03-23T08:50:36;14.90;51.00
32147;DHT22;32190;49.112;8.598;2024-03-23T08:56:27;14.90;50.10
32147;DHT22;32190;49.112;8.598;2024-03-23T09:02:17;14.80;49.90
32147;DHT22;32190;49.112;8.598;2024-03-23T09:08:08;14.70;49.70
32147;DHT22;32190;49.112;8.598;2024-03-23T09:13:59;14.70;49.70
32147;DHT22;32190;49.112;8.598;2024-03-23T09:19:49;14.80;49.90
32147;DHT22;32190;49.112;8.598;2024-03-23T09:25:49;14.90;49.10
32147;DHT22;32190;49.112;8.598;2024-03-23T09:31:40;15.00;48.20
32147;DHT22;32190;49.112;8.598;2024-03-23T09:37:31;15.10;47.20
32147;DHT22;32190;49.112;8.598;2024-03-23T09:43:34;15.20;47.60
32147;DHT22;32190;49.112;8.598;2024-03-23T09:49:24;15.30;47.10
32147;DHT22;32190;49.112;8.598;2024-03-23T09:55:38;15.30;46.80
32147;DHT22;32190;49.112;8.598;2024-03-23T10:01:37;15.30;47.30
32147;DHT22;32190;49.112;8.598;2024-03-23T10:07:30;15.30;47.60
32147;DHT22;32190;49.112;8.598;2024-03-23T10:13:25;15.40;47.00
32147;DHT22;32190;49.112;8.598;2024-03-23T10:19:32;15.40;47.00
32147;DHT22;32190;49.112;8.598;2024-03-23T10:25:23;15.30;46.90
32147;DHT22;32190;49.112;8.598;2024-03-23T10:31:13;15.20;47.40
32147;DHT22;32190;49.112;8.598;2024-03-23T11:08:32;15.60;47.70
32147;DHT22;32190;49.112;8.598;2024-03-23T11:14:23;15.70;48.20
32147;DHT22;32190;49.112;8.598;2024-03-23T11:20:14;15.90;47.00
32147;DHT22;32190;49.112;8.598;2024-03-23T11:26:06;15.90;47.30
32147;DHT22;32190;49.112;8.598;2024-03-23T11:31:57;15.90;46.70
32147;DHT22;32190;49.112;8.598;2024-03-23T11:38:00;15.90;46.70
32147;DHT22;32190;49.112;8.598;2024-03-23T11:43:51;16.00;46.20
32147;DHT22;32190;49.112;8.598;2024-03-23T11:49:41;15.90;46.40
32147;DHT22;32190;49.112;8.598;2024-03-23T11:55:41;16.00;46.30
32147;DHT22;32190;49.112;8.598;2024-03-23T12:01:32;16.00;45.10
32147;DHT22;32190;49.112;8.598;2024-03-23T12:07:23;15.90;44.40
32147;DHT22;32190;49.112;8.598;2024-03-23T12:13:17;15.80;44.40
32147;DHT22;32190;49.112;8.598;2024-03-23T12:19:08;15.80;44.10
32147;DHT22;32190;49.112;8.598;2024-03-23T12:24:58;15.80;45.20
32147;DHT22;32190;49.112;8.598;2024-03-23T12:30:49;15.90;45.70
32147;DHT22;32190;49.112;8.598;2024-03-23T12:36:39;16.20;46.00
32147;DHT22;32190;49.112;8.598;2024-03-23T12:42:30;16.30;46.40
32147;DHT22;32190;49.112;8.598;2024-03-23T12:48:20;16.40;44.80
32147;DHT22;32190;49.112;8.598;2024-03-23T12:54:11;16.30;44.80
32147;DHT22;32190;49.112;8.598;2024-03-23T13:00:02;16.00;44.60
32147;DHT22;32190;49.112;8.598;2024-03-23T13:05:53;15.90;44.80
32147;DHT22;32190;49.112;8.598;2024-03-23T13:29:48;14.60;45.70
32147;DHT22;32190;49.112;8.598;2024-03-23T13:41:50;14.50;46.90
32147;DHT22;32190;49.112;8.598;2024-03-23T13:47:40;14.70;46.70
32147;DHT22;32190;49.112;8.598;2024-03-23T13:53:31;14.80;46.30
32147;DHT22;32190;49.112;8.598;2024-03-23T13:59:24;14.80;46.20
32147;DHT22;32190;49.112;8.598;2024-03-23T14:05:15;14.90;45.60
32147;DHT22;32190;49.112;8.598;2024-03-23T14:11:06;14.80;45.60
32147;DHT22;32190;49.112;8.598;2024-03-23T14:16:56;14.80;46.10
32147;DHT22;32190;49.112;8.598;2024-03-23T14:22:47;14.90;46.10
32147;DHT22;32190;49.112;8.598;2024-03-23T14:28:37;15.00;45.80
32147;DHT22;32190;49.112;8.598;2024-03-23T14:34:28;15.00;46.30
32147;DHT22;32190;49.112;8.598;2024-03-23T14:40:18;15.00;46.90
32147;DHT22;32190;49.112;8.598;2024-03-23T14:46:15;15.00;47.10
32147;DHT22;32190;49.112;8.598;2024-03-23T14:52:06;15.10;46.90
32147;DHT22;32190;49.112;8.598;2024-03-23T14:57:59;15.10;47.60
32147;DHT22;32190;49.112;8.598;2024-03-23T15:03:49;15.10;47.00
32147;DHT22;32190;49.112;8.598;2024-03-23T15:09:43;15.20;47.10
32147;DHT22;32190;49.112;8.598;2024-03-23T15:15:37;15.30;46.70
32147;DHT22;32190;49.112;8.598;2024-03-23T15:21:29;15.40;46.40
32147;DHT22;32190;49.112;8.598;2024-03-23T15:27:19;15.40;45.80
32147;DHT22;32190;49.112;8.598;2024-03-23T15:33:10;15.60;46.00
32147;DHT22;32190;49.112;8.598;2024-03-23T15:57:59;16.00;46.10
32147;DHT22;32190;49.112;8.598;2024-03-23T16:10:34;15.90;45.80
32147;DHT22;32190;49.112;8.598;2024-03-23T16:16:25;15.80;45.30
32147;DHT22;32190;49.112;8.598;2024-03-23T16:22:15;15.40;45.00
32147;DHT22;32190;49.112;8.598;2024-03-23T16:28:06;14.80;45.50
32147;DHT22;32190;49.112;8.598;2024-03-23T17:40:01;13.40;50.00
32147;DHT22;32190;49.112;8.598;2024-03-23T18:15:56;14.10;49.40
32147;DHT22;32190;49.112;8.598;2024-03-23T18:21:47;14.10;49.40
32147;DHT22;32190;49.112;8.598;2024-03-23T18:27:37;14.10;49.40
32147;DHT22;32190;49.112;8.598;2024-03-23T18:33:31;14.00;49.30
32147;DHT22;32190;49.112;8.598;2024-03-23T18:39:22;13.90;49.20
32147;DHT22;32190;49.112;8.598;2024-03-23T21:39:18;12.40;50.10
32147;DHT22;32190;49.112;8.598;2024-03-23T21:45:09;12.40;50.20
32147;DHT22;32190;49.112;8.598;2024-03-23T21:51:00;12.50;50.30
32147;DHT22;32190;49.112;8.598;2024-03-23T21:56:53;12.50;50.40
32147;DHT22;32190;49.112;8.598;2024-03-23T22:02:44;12.40;50.20
32147;DHT22;32190;49.112;8.598;2024-03-23T22:45:15;12.40;50.40
32147;DHT22;32190;49.112;8.598;2024-03-23T22:51:11;12.40;50.50
32147;DHT22;32190;49.112;8.598;2024-03-23T22:57:02;12.40;50.50
32147;DHT22;32190;49.112;8.598;2024-03-23T23:02:53;12.40;50.40
32147;DHT22;32190;49.112;8.598;2024-03-23T23:08:44;12.40;50.60
32147;DHT22;32190;49.112;8.598;2024-03-23T23:20:58;12.40;50.50
32147;DHT22;32190;49.112;8.598;2024-03-23T23:26:49;12.40;50.60
32147;DHT22;32190;49.112;8.598;2024-03-23T23:32:40;12.30;50.60
32147;DHT22;32190;49.112;8.598;2024-03-23T23:38:31;12.30;50.60
32147;DHT22;32190;49.112;8.598;2024-03-23T23:44:21;12.10;50.70
